sensor_id;sensor_type;location;lat;lon;timestamp;pressure;altitude;pressure_sealevel;temperature;humidity
81224;BME280;70698;44.402;18.522;2024-01-10T00:01:42;98800.88;;;-4.77;100.00
81224;BME280;70698;44.402;18.522;2024-01-10T00:04:08;98805.00;;;-4.71;100.00
81224;BME280;70698;44.402;18.522;2024-01-10T00:06:34;98811.97;;;-4.77;100.00
81224;BME280;70698;44.402;18.522;2024-01-10T00:08:59;98817.41;;;-4.86;100.00
81224;BME280;70698;44.402;18.522;2024-01-10T00:11:25;98818.38;;;-4.90;100.00
81224;BME280;70698;44.402;18.522;2024-01-10T00:13:51;98804.94;;;-4.98;100.00
81224;BME280;70698;44.402;18.522;2024-01-10T00:16:17;98812.63;;;-4.98;100.00
81224;BME280;70698;44.402;18.522;2024-01-10T00:18:42;98826.25;;;-4.96;100.00
81224;BME280;70698;44.402;18.522;2024-01-10T00:21:09;98800.44;;;-4.90;100.00
81224;BME280;70698;44.402;18.522;2024-01-10T00:23:35;98813.44;;;-4.96;100.00
81224;BME280;70698;44.402;18.522;2024-01-10T00:26:01;98822.94;;;-4.99;100.00
81224;BME280;70698;44.402;18.522;2024-01-10T00:28:26;98807.59;;;-5.01;100.00
81224;BME280;70698;44.402;18.522;2024-01-10T00:30:52;98828.25;;;-5.05;100.00
81224;BME280;70698;44.402;18.522;2024-01-10T00:33:18;98806.63;;;-4.97;100.00
81224;BME280;70698;44.402;18.522;2024-01-10T00:35:44;98816.53;;;-4.85;100.00
81224;BME280;70698;44.402;18.522;2024-01-10T00:38:09;98820.09;;;-4.90;99.65
81224;BME280;70698;44.402;18.522;2024-01-10T00:40:35;98827.97;;;-4.96;99.98
81224;BME280;70698;44.402;18.522;2024-01-10T00:43:01;98823.03;;;-5.02;100.00
81224;BME280;70698;44.402;18.522;2024-01-10T00:45:27;98819.88;;;-5.10;100.00
81224;BME280;70698;44.402;18.522;2024-01-10T00:47:53;98821.38;;;-5.03;100.00
81224;BME280;70698;44.402;18.522;2024-01-10T00:50:18;98824.44;;;-4.64;100.00
81224;BME280;70698;44.402;18.522;2024-01-10T00:52:45;98814.38;;;-4.70;99.24
81224;BME280;70698;44.402;18.522;2024-01-10T00:55:11;98816.19;;;-4.48;98.16
81224;BME280;70698;44.402;18.522;2024-01-10T00:57:37;98819.31;;;-4.64;97.54
81224;BME280;70698;44.402;18.522;2024-01-10T01:00:07;98825.84;;;-4.54;96.91
81224;BME280;70698;44.402;18.522;2024-01-10T01:02:32;98831.03;;;-4.57;96.44
81224;BME280;70698;44.402;18.522;2024-01-10T01:04:58;98823.78;;;-4.71;96.60
81224;BME280;70698;44.402;18.522;2024-01-10T01:07:24;98819.19;;;-4.61;97.09
81224;BME280;70698;44.402;18.522;2024-01-10T01:09:49;98817.38;;;-4.58;96.86
81224;BME280;70698;44.402;18.522;2024-01-10T01:12:15;98823.00;;;-4.47;97.01
81224;BME280;70698;44.402;18.522;2024-01-10T01:14:41;98827.16;;;-4.43;96.16
81224;BME280;70698;44.402;18.522;2024-01-10T01:17:07;98822.03;;;-4.69;95.54
81224;BME280;70698;44.402;18.522;2024-01-10T01:19:32;98827.56;;;-4.55;96.79
81224;BME280;70698;44.402;18.522;2024-01-10T01:21:58;98829.47;;;-4.61;96.32
81224;BME280;70698;44.402;18.522;2024-01-10T01:24:24;98830.84;;;-4.51;96.37
81224;BME280;70698;44.402;18.522;2024-01-10T01:26:49;98830.31;;;-4.35;96.86
81224;BME280;70698;44.402;18.522;2024-01-10T01:29:15;98829.22;;;-4.27;95.35
81224;BME280;70698;44.402;18.522;2024-01-10T01:31:41;98829.16;;;-4.52;94.36
81224;BME280;70698;44.402;18.522;2024-01-10T01:34:06;98821.81;;;-4.91;95.84
81224;BME280;70698;44.402;18.522;2024-01-10T01:36:32;98820.25;;;-4.95;97.12
81224;BME280;70698;44.402;18.522;2024-01-10T01:38:58;98814.00;;;-5.14;97.69
81224;BME280;70698;44.402;18.522;2024-01-10T01:41:23;98811.28;;;-5.09;98.48
81224;BME280;70698;44.402;18.522;2024-01-10T01:43:49;98825.13;;;-4.87;98.49
81224;BME280;70698;44.402;18.522;2024-01-10T01:46:15;98821.00;;;-4.91;97.42
81224;BME280;70698;44.402;18.522;2024-01-10T01:48:41;98825.50;;;-4.71;98.03
81224;BME280;70698;44.402;18.522;2024-01-10T01:51:09;98818.47;;;-4.65;97.08
81224;BME280;70698;44.402;18.522;2024-01-10T01:53:36;98813.34;;;-4.65;96.04
81224;BME280;70698;44.402;18.522;2024-01-10T01:56:05;98814.81;;;-4.58;95.61
81224;BME280;70698;44.402;18.522;2024-01-10T01:58:32;98800.41;;;-4.62;95.90
81224;BME280;70698;44.402;18.522;2024-01-10T02:00:58;98817.34;;;-4.56;95.45
81224;BME280;70698;44.402;18.522;2024-01-10T02:03:25;98815.97;;;-4.68;94.99
81224;BME280;70698;44.402;18.522;2024-01-10T02:05:52;98787.38;;;-4.82;95.04
81224;BME280;70698;44.402;18.522;2024-01-10T02:08:17;98801.44;;;-4.67;96.39
81224;BME280;70698;44.402;18.522;2024-01-10T02:10:43;98797.28;;;-4.71;97.25
81224;BME280;70698;44.402;18.522;2024-01-10T02:13:09;98804.09;;;-4.70;96.67
81224;BME280;70698;44.402;18.522;2024-01-10T02:15:37;98801.72;;;-4.77;96.47
81224;BME280;70698;44.402;18.522;2024-01-10T02:18:03;98795.88;;;-4.54;96.38
81224;BME280;70698;44.402;18.522;2024-01-10T02:20:31;98792.84;;;-4.66;95.91
81224;BME280;70698;44.402;18.522;2024-01-10T02:22:57;98807.38;;;-4.65;95.47
81224;BME280;70698;44.402;18.522;2024-01-10T02:25:23;98802.28;;;-4.67;95.86
81224;BME280;70698;44.402;18.522;2024-01-10T02:27:48;98804.28;;;-4.49;96.06
81224;BME280;70698;44.402;18.522;2024-01-10T02:30:14;98799.63;;;-4.92;95.27
81224;BME280;70698;44.402;18.522;2024-01-10T02:32:40;98799.41;;;-5.12;96.64
81224;BME280;70698;44.402;18.522;2024-01-10T02:35:06;98803.88;;;-5.18;97.75
81224;BME280;70698;44.402;18.522;2024-01-10T02:37:32;98798.19;;;-5.28;98.60
81224;BME280;70698;44.402;18.522;2024-01-10T02:39:57;98803.09;;;-5.22;98.82
81224;BME280;70698;44.402;18.522;2024-01-10T02:42:23;98804.94;;;-4.98;99.87
81224;BME280;70698;44.402;18.522;2024-01-10T02:44:48;98799.22;;;-5.06;98.98
81224;BME280;70698;44.402;18.522;2024-01-10T02:47:14;98804.19;;;-5.01;98.40
81224;BME280;70698;44.402;18.522;2024-01-10T02:49:40;98795.91;;;-5.09;98.17
81224;BME280;70698;44.402;18.522;2024-01-10T02:52:05;98795.75;;;-5.03;99.14
81224;BME280;70698;44.402;18.522;2024-01-10T02:54:31;98799.53;;;-5.16;98.40
81224;BME280;70698;44.402;18.522;2024-01-10T02:56:57;98798.72;;;-4.89;99.48
81224;BME280;70698;44.402;18.522;2024-01-10T02:59:22;98799.06;;;-5.01;98.50
81224;BME280;70698;44.402;18.522;2024-01-10T03:01:48;98797.53;;;-5.07;97.67
81224;BME280;70698;44.402;18.522;2024-01-10T03:04:14;98791.50;;;-5.04;97.84
81224;BME280;70698;44.402;18.522;2024-01-10T03:06:39;98783.03;;;-5.08;98.89
81224;BME280;70698;44.402;18.522;2024-01-10T03:09:06;98800.28;;;-5.13;98.36
81224;BME280;70698;44.402;18.522;2024-01-10T03:11:32;98792.72;;;-5.17;98.72
81224;BME280;70698;44.402;18.522;2024-01-10T03:14:03;98791.25;;;-5.25;98.96
81224;BME280;70698;44.402;18.522;2024-01-10T03:16:30;98795.66;;;-5.30;99.48
81224;BME280;70698;44.402;18.522;2024-01-10T03:18:56;98799.97;;;-5.32;99.26
81224;BME280;70698;44.402;18.522;2024-01-10T03:21:21;98787.56;;;-5.45;99.90
81224;BME280;70698;44.402;18.522;2024-01-10T03:23:50;98791.81;;;-5.44;100.00
81224;BME280;70698;44.402;18.522;2024-01-10T03:26:17;98792.69;;;-5.45;100.00
81224;BME280;70698;44.402;18.522;2024-01-10T03:28:42;98788.44;;;-5.46;100.00
81224;BME280;70698;44.402;18.522;2024-01-10T03:31:10;98798.06;;;-5.53;100.00
81224;BME280;70698;44.402;18.522;2024-01-10T03:33:36;98780.56;;;-5.68;100.00
81224;BME280;70698;44.402;18.522;2024-01-10T03:36:02;98798.16;;;-5.57;100.00
81224;BME280;70698;44.402;18.522;2024-01-10T03:38:28;98781.38;;;-5.68;100.00
81224;BME280;70698;44.402;18.522;2024-01-10T03:40:54;98804.34;;;-5.65;100.00
81224;BME280;70698;44.402;18.522;2024-01-10T03:43:19;98776.72;;;-5.53;100.00
81224;BME280;70698;44.402;18.522;2024-01-10T03:45:45;98783.31;;;-5.17;100.00
81224;BME280;70698;44.402;18.522;2024-01-10T03:48:10;98789.84;;;-5.07;100.00
81224;BME280;70698;44.402;18.522;2024-01-10T03:50:36;98794.56;;;-4.93;99.57
81224;BME280;70698;44.402;18.522;2024-01-10T03:53:02;98795.75;;;-5.03;98.57
81224;BME280;70698;44.402;18.522;2024-01-10T03:55:27;98785.81;;;-5.14;98.11
81224;BME280;70698;44.402;18.522;2024-01-10T03:57:53;98797.91;;;-5.19;98.56
81224;BME280;70698;44.402;18.522;2024-01-10T04:00:19;98790.28;;;-5.22;98.59
81224;BME280;70698;44.402;18.522;2024-01-10T04:02:45;98795.03;;;-5.38;98.41
81224;BME280;70698;44.402;18.522;2024-01-10T04:05:11;98793.97;;;-5.31;99.07
81224;BME280;70698;44.402;18.522;2024-01-10T04:07:40;98787.88;;;-5.27;99.90
81224;BME280;70698;44.402;18.522;2024-01-10T04:10:07;98789.69;;;-5.30;99.25
81224;BME280;70698;44.402;18.522;2024-01-10T04:12:38;98798.25;;;-5.31;99.92
81224;BME280;70698;44.402;18.522;2024-01-10T04:15:04;98806.09;;;-5.36;100.00
81224;BME280;70698;44.402;18.522;2024-01-10T04:17:30;98807.25;;;-5.47;100.00
81224;BME280;70698;44.402;18.522;2024-01-10T04:19:56;98806.34;;;-5.45;100.00
81224;BME280;70698;44.402;18.522;2024-01-10T04:22:23;98814.72;;;-5.38;100.00
81224;BME280;70698;44.402;18.522;2024-01-10T04:24:49;98818.44;;;-5.50;100.00
81224;BME280;70698;44.402;18.522;2024-01-10T04:27:15;98807.03;;;-5.38;100.00
81224;BME280;70698;44.402;18.522;2024-01-10T04:29:41;98820.22;;;-5.23;100.00
81224;BME280;70698;44.402;18.522;2024-01-10T04:32:07;98825.16;;;-5.16;98.53
81224;BME280;70698;44.402;18.522;2024-01-10T04:34:33;98814.06;;;-5.46;97.54
81224;BME280;70698;44.402;18.522;2024-01-10T04:36:59;98823.09;;;-5.33;98.46
81224;BME280;70698;44.402;18.522;2024-01-10T04:39:24;98821.75;;;-5.46;98.82
81224;BME280;70698;44.402;18.522;2024-01-10T04:41:50;98829.16;;;-5.67;98.91
81224;BME280;70698;44.402;18.522;2024-01-10T04:44:16;98833.34;;;-5.64;99.50
81224;BME280;70698;44.402;18.522;2024-01-10T04:46:41;98835.03;;;-5.63;99.96
81224;BME280;70698;44.402;18.522;2024-01-10T04:49:07;98839.13;;;-5.57;98.80
81224;BME280;70698;44.402;18.522;2024-01-10T04:51:33;98837.66;;;-5.66;98.43
81224;BME280;70698;44.402;18.522;2024-01-10T04:53:59;98833.81;;;-5.81;98.72
81224;BME280;70698;44.402;18.522;2024-01-10T04:56:25;98858.84;;;-5.90;99.43
81224;BME280;70698;44.402;18.522;2024-01-10T04:58:51;98848.00;;;-6.00;100.00
81224;BME280;70698;44.402;18.522;2024-01-10T05:01:17;98856.97;;;-5.85;100.00
81224;BME280;70698;44.402;18.522;2024-01-10T05:03:43;98856.69;;;-6.07;100.00
81224;BME280;70698;44.402;18.522;2024-01-10T05:06:09;98867.38;;;-5.90;100.00
81224;BME280;70698;44.402;18.522;2024-01-10T05:08:35;98862.22;;;-5.88;100.00
81224;BME280;70698;44.402;18.522;2024-01-10T05:11:00;98865.66;;;-5.91;100.00
81224;BME280;70698;44.402;18.522;2024-01-10T05:13:26;98873.09;;;-6.14;100.00
81224;BME280;70698;44.402;18.522;2024-01-10T05:15:52;98868.22;;;-6.23;100.00
81224;BME280;70698;44.402;18.522;2024-01-10T05:18:17;98869.69;;;-6.15;100.00
81224;BME280;70698;44.402;18.522;2024-01-10T05:20:44;98876.44;;;-6.12;100.00
81224;BME280;70698;44.402;18.522;2024-01-10T05:23:10;98875.53;;;-6.10;100.00
81224;BME280;70698;44.402;18.522;2024-01-10T05:25:36;98872.00;;;-6.04;100.00
81224;BME280;70698;44.402;18.522;2024-01-10T05:28:02;98856.91;;;-6.15;100.00
81224;BME280;70698;44.402;18.522;2024-01-10T05:30:28;98867.16;;;-6.16;100.00
81224;BME280;70698;44.402;18.522;2024-01-10T05:32:53;98874.09;;;-6.20;100.00
81224;BME280;70698;44.402;18.522;2024-01-10T05:35:19;98857.97;;;-6.23;100.00
81224;BME280;70698;44.402;18.522;2024-01-10T05:37:45;98875.22;;;-5.97;100.00
81224;BME280;70698;44.402;18.522;2024-01-10T05:40:11;98876.56;;;-5.84;100.00
81224;BME280;70698;44.402;18.522;2024-01-10T05:42:36;98872.47;;;-5.90;100.00
81224;BME280;70698;44.402;18.522;2024-01-10T05:45:04;98876.19;;;-5.69;100.00
81224;BME280;70698;44.402;18.522;2024-01-10T05:47:30;98861.41;;;-5.59;100.00
81224;BME280;70698;44.402;18.522;2024-01-10T05:49:55;98873.09;;;-5.49;100.00
81224;BME280;70698;44.402;18.522;2024-01-10T05:52:21;98876.25;;;-5.41;100.00
81224;BME280;70698;44.402;18.522;2024-01-10T05:54:48;98875.72;;;-5.22;99.76
81224;BME280;70698;44.402;18.522;2024-01-10T05:57:14;98871.41;;;-5.19;99.71
81224;BME280;70698;44.402;18.522;2024-01-10T05:59:40;98878.50;;;-5.29;98.76
81224;BME280;70698;44.402;18.522;2024-01-10T06:02:05;98893.16;;;-5.03;99.16
81224;BME280;70698;44.402;18.522;2024-01-10T06:04:31;98894.66;;;-4.98;96.96
81224;BME280;70698;44.402;18.522;2024-01-10T06:06:58;98888.47;;;-4.89;96.35
81224;BME280;70698;44.402;18.522;2024-01-10T06:09:24;98900.88;;;-5.05;96.01
81224;BME280;70698;44.402;18.522;2024-01-10T06:11:50;98889.03;;;-5.09;96.85
81224;BME280;70698;44.402;18.522;2024-01-10T06:14:16;98891.22;;;-5.26;96.79
81224;BME280;70698;44.402;18.522;2024-01-10T06:16:42;98864.63;;;-5.22;98.49
81224;BME280;70698;44.402;18.522;2024-01-10T06:19:07;98897.63;;;-5.11;97.86
81224;BME280;70698;44.402;18.522;2024-01-10T06:21:33;98887.69;;;-5.22;97.01
81224;BME280;70698;44.402;18.522;2024-01-10T06:23:59;98865.25;;;-5.43;97.21
81224;BME280;70698;44.402;18.522;2024-01-10T06:26:24;98903.53;;;-5.39;98.25
81224;BME280;70698;44.402;18.522;2024-01-10T06:28:50;98875.97;;;-5.61;98.99
81224;BME280;70698;44.402;18.522;2024-01-10T06:31:16;98894.53;;;-5.53;100.00
81224;BME280;70698;44.402;18.522;2024-01-10T06:33:41;98895.59;;;-5.62;100.00
81224;BME280;70698;44.402;18.522;2024-01-10T06:36:07;98899.13;;;-5.66;100.00
81224;BME280;70698;44.402;18.522;2024-01-10T06:38:33;98892.72;;;-5.82;100.00
81224;BME280;70698;44.402;18.522;2024-01-10T06:40:58;98901.97;;;-5.44;100.00
81224;BME280;70698;44.402;18.522;2024-01-10T06:43:24;98906.75;;;-5.32;100.00
81224;BME280;70698;44.402;18.522;2024-01-10T06:45:50;98908.53;;;-5.34;99.53
81224;BME280;70698;44.402;18.522;2024-01-10T06:48:15;98913.56;;;-5.31;99.20
81224;BME280;70698;44.402;18.522;2024-01-10T06:50:41;98894.41;;;-5.49;99.39
81224;BME280;70698;44.402;18.522;2024-01-10T06:53:07;98906.31;;;-5.48;99.24
81224;BME280;70698;44.402;18.522;2024-01-10T06:55:33;98899.53;;;-5.49;99.12
81224;BME280;70698;44.402;18.522;2024-01-10T06:57:59;98916.66;;;-5.18;99.20
81224;BME280;70698;44.402;18.522;2024-01-10T07:00:25;98917.72;;;-5.27;97.77
81224;BME280;70698;44.402;18.522;2024-01-10T07:02:51;98919.91;;;-5.44;97.39
81224;BME280;70698;44.402;18.522;2024-01-10T07:05:17;98922.63;;;-5.50;97.51
81224;BME280;70698;44.402;18.522;2024-01-10T07:07:42;98929.88;;;-5.34;97.44
81224;BME280;70698;44.402;18.522;2024-01-10T07:10:09;98929.16;;;-5.39;96.53
81224;BME280;70698;44.402;18.522;2024-01-10T07:12:36;98912.78;;;-5.66;96.07
81224;BME280;70698;44.402;18.522;2024-01-10T07:15:01;98935.31;;;-5.78;96.23
81224;BME280;70698;44.402;18.522;2024-01-10T07:17:30;98930.31;;;-5.83;96.76
81224;BME280;70698;44.402;18.522;2024-01-10T07:19:55;98931.13;;;-5.82;97.61
81224;BME280;70698;44.402;18.522;2024-01-10T07:22:22;98927.06;;;-5.88;97.73
81224;BME280;70698;44.402;18.522;2024-01-10T07:24:48;98927.03;;;-5.55;98.70
81224;BME280;70698;44.402;18.522;2024-01-10T07:27:14;98935.16;;;-5.40;97.93
81224;BME280;70698;44.402;18.522;2024-01-10T07:29:40;98929.91;;;-5.35;95.99
81224;BME280;70698;44.402;18.522;2024-01-10T07:32:07;98933.22;;;-5.32;95.04
81224;BME280;70698;44.402;18.522;2024-01-10T07:34:39;98930.88;;;-5.08;94.58
81224;BME280;70698;44.402;18.522;2024-01-10T07:37:05;98915.50;;;-5.08;93.85
81224;BME280;70698;44.402;18.522;2024-01-10T07:39:31;98934.88;;;-4.98;92.59
81224;BME280;70698;44.402;18.522;2024-01-10T07:41:57;98924.91;;;-5.09;92.75
81224;BME280;70698;44.402;18.522;2024-01-10T07:44:23;98930.25;;;-5.16;92.34
81224;BME280;70698;44.402;18.522;2024-01-10T07:46:49;98935.75;;;-5.30;93.45
81224;BME280;70698;44.402;18.522;2024-01-10T07:49:19;98927.97;;;-5.27;94.59
81224;BME280;70698;44.402;18.522;2024-01-10T07:51:47;98924.97;;;-5.43;94.38
81224;BME280;70698;44.402;18.522;2024-01-10T07:54:12;98934.19;;;-5.36;94.87
81224;BME280;70698;44.402;18.522;2024-01-10T07:56:38;98928.50;;;-5.47;94.32
81224;BME280;70698;44.402;18.522;2024-01-10T07:59:05;98935.34;;;-5.47;95.02
81224;BME280;70698;44.402;18.522;2024-01-10T08:01:30;98935.53;;;-5.53;95.01
81224;BME280;70698;44.402;18.522;2024-01-10T08:03:56;98936.66;;;-5.33;95.23
81224;BME280;70698;44.402;18.522;2024-01-10T08:06:22;98925.78;;;-5.41;95.08
81224;BME280;70698;44.402;18.522;2024-01-10T08:08:48;98927.59;;;-5.44;94.48
81224;BME280;70698;44.402;18.522;2024-01-10T08:11:14;98935.22;;;-5.43;94.54
81224;BME280;70698;44.402;18.522;2024-01-10T08:13:39;98927.78;;;-5.52;94.33
81224;BME280;70698;44.402;18.522;2024-01-10T08:16:06;98937.38;;;-5.58;93.89
81224;BME280;70698;44.402;18.522;2024-01-10T08:18:34;98935.41;;;-5.49;94.58
81224;BME280;70698;44.402;18.522;2024-01-10T08:20:59;98935.41;;;-5.49;94.63
81224;BME280;70698;44.402;18.522;2024-01-10T08:23:25;98923.75;;;-5.60;95.10
81224;BME280;70698;44.402;18.522;2024-01-10T08:25:50;98933.16;;;-5.61;94.90
81224;BME280;70698;44.402;18.522;2024-01-10T08:28:16;98947.56;;;-5.57;95.25
81224;BME280;70698;44.402;18.522;2024-01-10T08:30:42;98940.47;;;-5.47;94.99
81224;BME280;70698;44.402;18.522;2024-01-10T08:33:07;98937.75;;;-5.41;95.08
81224;BME280;70698;44.402;18.522;2024-01-10T08:35:33;98934.31;;;-5.40;94.29
81224;BME280;70698;44.402;18.522;2024-01-10T08:37:58;98942.03;;;-5.42;93.82
81224;BME280;70698;44.402;18.522;2024-01-10T08:40:24;98935.63;;;-5.26;94.55
81224;BME280;70698;44.402;18.522;2024-01-10T08:42:53;98939.19;;;-5.00;94.04
81224;BME280;70698;44.402;18.522;2024-01-10T08:45:19;98928.28;;;-4.78;92.36
81224;BME280;70698;44.402;18.522;2024-01-10T08:47:45;98938.63;;;-4.51;89.99
81224;BME280;70698;44.402;18.522;2024-01-10T08:50:11;98931.44;;;-4.40;89.11
81224;BME280;70698;44.402;18.522;2024-01-10T08:52:36;98929.56;;;-4.35;89.03
81224;BME280;70698;44.402;18.522;2024-01-10T08:55:05;98948.91;;;-4.23;88.05
81224;BME280;70698;44.402;18.522;2024-01-10T08:57:31;98950.03;;;-4.06;88.72
81224;BME280;70698;44.402;18.522;2024-01-10T08:59:57;98964.22;;;-4.22;87.71
81224;BME280;70698;44.402;18.522;2024-01-10T09:02:23;98942.81;;;-4.21;87.67
81224;BME280;70698;44.402;18.522;2024-01-10T09:04:49;98952.41;;;-4.27;88.24
81224;BME280;70698;44.402;18.522;2024-01-10T09:07:15;98945.25;;;-4.16;87.49
81224;BME280;70698;44.402;18.522;2024-01-10T09:09:43;98954.28;;;-4.05;86.75
81224;BME280;70698;44.402;18.522;2024-01-10T09:12:09;98959.50;;;-4.08;86.69
81224;BME280;70698;44.402;18.522;2024-01-10T09:14:34;98942.34;;;-4.06;86.11
81224;BME280;70698;44.402;18.522;2024-01-10T09:17:00;98956.72;;;-4.00;86.13
81224;BME280;70698;44.402;18.522;2024-01-10T09:19:29;98958.00;;;-3.87;85.90
81224;BME280;70698;44.402;18.522;2024-01-10T09:21:56;98965.19;;;-3.72;85.17
81224;BME280;70698;44.402;18.522;2024-01-10T09:24:23;98953.88;;;-3.40;84.90
81224;BME280;70698;44.402;18.522;2024-01-10T09:26:51;98952.31;;;-3.70;84.46
81224;BME280;70698;44.402;18.522;2024-01-10T09:29:17;98951.59;;;-3.74;85.49
81224;BME280;70698;44.402;18.522;2024-01-10T09:31:43;98948.41;;;-3.82;86.03
81224;BME280;70698;44.402;18.522;2024-01-10T09:34:09;98942.69;;;-3.64;86.38
81224;BME280;70698;44.402;18.522;2024-01-10T09:36:34;98948.50;;;-3.59;85.99
81224;BME280;70698;44.402;18.522;2024-01-10T09:39:00;98947.38;;;-3.76;87.09
81224;BME280;70698;44.402;18.522;2024-01-10T09:41:28;98946.22;;;-3.68;86.78
81224;BME280;70698;44.402;18.522;2024-01-10T09:43:55;98940.63;;;-3.05;85.41
81224;BME280;70698;44.402;18.522;2024-01-10T09:46:21;98932.53;;;-2.49;84.79
81224;BME280;70698;44.402;18.522;2024-01-10T09:48:47;98932.78;;;-2.55;82.98
81224;BME280;70698;44.402;18.522;2024-01-10T09:51:13;98934.00;;;-2.42;82.45
81224;BME280;70698;44.402;18.522;2024-01-10T09:53:44;98938.44;;;-2.69;82.05
81224;BME280;70698;44.402;18.522;2024-01-10T09:56:15;98926.97;;;-3.07;82.11
81224;BME280;70698;44.402;18.522;2024-01-10T09:58:44;98923.97;;;-2.94;83.01
81224;BME280;70698;44.402;18.522;2024-01-10T10:01:10;98931.63;;;-2.48;81.13
81224;BME280;70698;44.402;18.522;2024-01-10T10:03:37;98934.75;;;-2.62;81.40
81224;BME280;70698;44.402;18.522;2024-01-10T10:06:04;98925.91;;;-2.54;81.98
81224;BME280;70698;44.402;18.522;2024-01-10T10:08:30;98919.59;;;-2.47;80.21
81224;BME280;70698;44.402;18.522;2024-01-10T10:10:55;98914.66;;;-2.30;80.01
81224;BME280;70698;44.402;18.522;2024-01-10T10:13:25;98918.06;;;-2.30;79.82
81224;BME280;70698;44.402;18.522;2024-01-10T10:16:24;98909.38;;;-2.05;79.33
81224;BME280;70698;44.402;18.522;2024-01-10T10:18:54;98897.56;;;-2.33;79.50
81224;BME280;70698;44.402;18.522;2024-01-10T10:21:25;98902.69;;;-2.31;79.70
81224;BME280;70698;44.402;18.522;2024-01-10T10:23:58;98903.34;;;-1.84;78.17
81224;BME280;70698;44.402;18.522;2024-01-10T10:26:26;98899.69;;;-2.21;79.11
81224;BME280;70698;44.402;18.522;2024-01-10T10:28:52;98891.47;;;-2.52;79.84
81224;BME280;70698;44.402;18.522;2024-01-10T10:31:18;98887.75;;;-2.23;80.56
81224;BME280;70698;44.402;18.522;2024-01-10T10:33:45;98881.09;;;-2.29;80.03
81224;BME280;70698;44.402;18.522;2024-01-10T10:36:15;98881.44;;;-2.36;80.59
81224;BME280;70698;44.402;18.522;2024-01-10T10:38:40;98870.22;;;-2.35;80.69
81224;BME280;70698;44.402;18.522;2024-01-10T10:41:06;98883.22;;;-2.17;80.60
81224;BME280;70698;44.402;18.522;2024-01-10T10:43:36;98883.50;;;-1.82;80.35
81224;BME280;70698;44.402;18.522;2024-01-10T10:46:04;98879.97;;;-2.00;79.20
81224;BME280;70698;44.402;18.522;2024-01-10T10:48:35;98881.94;;;-2.06;80.64
81224;BME280;70698;44.402;18.522;2024-01-10T10:51:12;98864.00;;;-2.51;83.09
81224;BME280;70698;44.402;18.522;2024-01-10T10:53:42;98876.91;;;-2.53;84.79
81224;BME280;70698;44.402;18.522;2024-01-10T10:56:11;98892.38;;;-2.75;84.28
81224;BME280;70698;44.402;18.522;2024-01-10T10:58:42;98889.66;;;-2.72;84.53
81224;BME280;70698;44.402;18.522;2024-01-10T11:01:11;98887.88;;;-2.70;84.28
81224;BME280;70698;44.402;18.522;2024-01-10T11:03:37;98892.84;;;-2.88;85.01
81224;BME280;70698;44.402;18.522;2024-01-10T11:06:04;98880.06;;;-2.90;86.37
81224;BME280;70698;44.402;18.522;2024-01-10T11:08:37;98886.00;;;-3.11;85.81
81224;BME280;70698;44.402;18.522;2024-01-10T11:11:07;98885.66;;;-3.02;86.84
81224;BME280;70698;44.402;18.522;2024-01-10T11:14:32;98888.94;;;-2.75;84.70
81224;BME280;70698;44.402;18.522;2024-01-10T11:19:58;98877.25;;;-2.84;84.83
81224;BME280;70698;44.402;18.522;2024-01-10T11:25:17;98864.63;;;-2.68;84.76
81224;BME280;70698;44.402;18.522;2024-01-10T11:27:44;98877.81;;;-2.76;85.39
81224;BME280;70698;44.402;18.522;2024-01-10T11:30:12;98873.50;;;-2.53;85.71
81224;BME280;70698;44.402;18.522;2024-01-10T11:32:38;98868.50;;;-2.56;83.67
81224;BME280;70698;44.402;18.522;2024-01-10T11:35:19;98870.44;;;-2.63;85.04
81224;BME280;70698;44.402;18.522;2024-01-10T11:37:49;98869.47;;;-2.82;85.06
81224;BME280;70698;44.402;18.522;2024-01-10T11:40:46;98872.06;;;-2.82;85.88
81224;BME280;70698;44.402;18.522;2024-01-10T11:43:13;98869.13;;;-2.95;88.16
81224;BME280;70698;44.402;18.522;2024-01-10T11:45:50;98868.50;;;-3.01;89.22
81224;BME280;70698;44.402;18.522;2024-01-10T11:48:16;98868.72;;;-3.08;89.52
81224;BME280;70698;44.402;18.522;2024-01-10T11:50:42;98860.16;;;-3.08;89.35
81224;BME280;70698;44.402;18.522;2024-01-10T11:53:07;98863.56;;;-3.08;89.51
81224;BME280;70698;44.402;18.522;2024-01-10T11:56:08;98869.25;;;-3.23;88.90
81224;BME280;70698;44.402;18.522;2024-01-10T11:58:55;98848.78;;;-3.24;89.32
81224;BME280;70698;44.402;18.522;2024-01-10T12:01:21;98852.78;;;-3.17;89.78
81224;BME280;70698;44.402;18.522;2024-01-10T12:03:51;98854.34;;;-3.13;88.52
81224;BME280;70698;44.402;18.522;2024-01-10T12:06:19;98842.16;;;-3.08;88.44
81224;BME280;70698;44.402;18.522;2024-01-10T12:08:46;98860.19;;;-2.86;88.15
81224;BME280;70698;44.402;18.522;2024-01-10T12:11:12;98852.81;;;-2.50;85.55
81224;BME280;70698;44.402;18.522;2024-01-10T12:13:37;98837.13;;;-2.24;85.74
81224;BME280;70698;44.402;18.522;2024-01-10T12:16:04;98840.28;;;-2.38;84.22
81224;BME280;70698;44.402;18.522;2024-01-10T12:18:30;98846.88;;;-2.31;85.83
81224;BME280;70698;44.402;18.522;2024-01-10T12:20:55;98830.84;;;-2.59;86.01
81224;BME280;70698;44.402;18.522;2024-01-10T12:23:21;98834.84;;;-2.74;87.48
81224;BME280;70698;44.402;18.522;2024-01-10T12:25:48;98833.34;;;-2.36;86.68
81224;BME280;70698;44.402;18.522;2024-01-10T12:28:17;98834.19;;;-2.35;85.10
81224;BME280;70698;44.402;18.522;2024-01-10T12:30:43;98830.00;;;-2.59;86.74
81224;BME280;70698;44.402;18.522;2024-01-10T12:33:09;98822.94;;;-2.54;87.21
81224;BME280;70698;44.402;18.522;2024-01-10T12:35:35;98831.47;;;-2.54;86.27
81224;BME280;70698;44.402;18.522;2024-01-10T12:38:00;98811.97;;;-2.38;85.78
81224;BME280;70698;44.402;18.522;2024-01-10T12:40:26;98836.03;;;-2.39;85.78
81224;BME280;70698;44.402;18.522;2024-01-10T12:43:06;98831.19;;;-2.46;85.57
81224;BME280;70698;44.402;18.522;2024-01-10T12:45:33;98822.53;;;-2.66;86.27
81224;BME280;70698;44.402;18.522;2024-01-10T12:47:58;98811.47;;;-2.26;86.00
81224;BME280;70698;44.402;18.522;2024-01-10T12:50:24;98828.59;;;-2.25;83.20
81224;BME280;70698;44.402;18.522;2024-01-10T12:52:53;98824.69;;;-2.55;86.28